Time;durP1;ratioP1;P1;durP2;ratioP2;P2;SDS_P1;SDS_P2;PMS_P1;PMS_P2;Temp;Humidity;BMP_temperature;BMP_pressure;BME280_temperature;BME280_humidity;BME280_pressure;Samples;Min_cycle;Max_cycle;Signal;HPM_P1;HPM_P2
2021/05/07 00:01:02;;;;;;;0.40;0.25;;;10.90;75.80;;;;;;5034513;28;20046;-64
2021/05/07 00:03:30;;;;;;;0.43;0.20;;;10.90;75.70;;;;;;5037220;28;20040;-64
2021/05/07 00:06:01;;;;;;;1.10;0.50;;;10.90;75.80;;;;;;5037093;28;20041;-64
2021/05/07 00:08:39;;;;;;;1.25;0.30;;;10.90;75.80;;;;;;5042246;28;20057;-64
2021/05/07 00:11:18;;;;;;;0.73;0.20;;;10.90;75.80;;;;;;5029086;28;20477;-65
2021/05/07 00:13:51;;;;;;;0.77;0.30;;;10.90;75.80;;;;;;5039924;28;20123;-64
2021/05/07 00:16:24;;;;;;;0.30;0.30;;;10.90;76.60;;;;;;5037086;28;20771;-64
2021/05/07 00:18:49;;;;;;;1.98;0.40;;;10.90;75.80;;;;;;5034392;28;20048;-65
2021/05/07 00:21:22;;;;;;;1.95;0.40;;;10.90;75.80;;;;;;5034852;28;20052;-64
2021/05/07 00:23:52;;;;;;;0.57;0.28;;;10.90;75.90;;;;;;5039520;28;20034;-67
2021/05/07 00:26:22;;;;;;;2.33;0.40;;;10.90;75.80;;;;;;5031848;28;20041;-64
2021/05/07 00:28:55;;;;;;;0.50;0.22;;;10.90;76.00;;;;;;5038545;28;20104;-64
2021/05/07 00:31:25;;;;;;;0.80;0.40;;;10.90;76.60;;;;;;5032482;28;20030;-64
2021/05/07 00:33:53;;;;;;;1.42;0.60;;;10.90;75.60;;;;;;5039589;28;20072;-65
2021/05/07 00:36:21;;;;;;;0.95;0.30;;;10.90;75.70;;;;;;5034996;28;20381;-64
2021/05/07 00:38:49;;;;;;;1.27;0.57;;;10.90;75.60;;;;;;5034065;28;20064;-65
2021/05/07 00:41:15;;;;;;;1.02;0.40;;;10.90;75.40;;;;;;5030273;28;20033;-64
2021/05/07 00:43:43;;;;;;;1.85;0.52;;;10.80;75.20;;;;;;5031810;28;20497;-66
2021/05/07 00:46:11;;;;;;;1.98;0.55;;;10.80;75.30;;;;;;5036887;28;20045;-64
2021/05/07 00:48:38;;;;;;;0.80;0.47;;;10.80;75.10;;;;;;5032889;28;20034;-65
2021/05/07 00:51:09;;;;;;;1.67;0.50;;;10.80;75.10;;;;;;5035422;28;20064;-64
2021/05/07 00:53:41;;;;;;;0.52;0.40;;;10.80;74.90;;;;;;5036293;28;20117;-63
2021/05/07 00:56:09;;;;;;;0.82;0.38;;;10.80;75.10;;;;;;5035266;28;20044;-64
2021/05/07 00:58:34;;;;;;;2.65;0.55;;;10.80;75.10;;;;;;5037024;28;20037;-65
2021/05/07 01:01:02;;;;;;;0.88;0.40;;;10.80;75.00;;;;;;5034680;28;20025;-65
2021/05/07 01:03:35;;;;;;;1.90;0.47;;;10.80;74.90;;;;;;5037104;28;20028;-64
2021/05/07 01:06:03;;;;;;;1.27;0.32;;;10.80;74.90;;;;;;5036613;28;20041;-64
2021/05/07 01:08:33;;;;;;;3.03;0.35;;;10.80;74.80;;;;;;5034721;28;20037;-64
2021/05/07 01:11:04;;;;;;;2.67;0.60;;;10.80;74.80;;;;;;5028271;28;20033;-64
2021/05/07 01:13:32;;;;;;;0.40;0.30;;;10.80;74.70;;;;;;5036739;28;20022;-64
2021/05/07 01:16:05;;;;;;;0.63;0.47;;;10.70;74.70;;;;;;5036025;28;20037;-63
2021/05/07 01:18:35;;;;;;;1.60;0.50;;;10.70;74.80;;;;;;5033533;28;20427;-64
2021/05/07 01:21:06;;;;;;;0.40;0.30;;;10.70;74.80;;;;;;5034780;28;20045;-64
2021/05/07 01:23:36;;;;;;;0.70;0.40;;;10.60;74.60;;;;;;5036059;28;20120;-64
2021/05/07 01:26:04;;;;;;;0.55;0.20;;;10.70;74.60;;;;;;5037247;28;20081;-64
2021/05/07 01:28:34;;;;;;;0.52;0.30;;;10.60;74.40;;;;;;5031068;28;20373;-64
2021/05/07 01:31:04;;;;;;;0.85;0.30;;;10.60;74.40;;;;;;5032588;28;20037;-64
2021/05/07 01:33:35;;;;;;;0.43;0.30;;;10.50;74.30;;;;;;5033443;28;20432;-65
2021/05/07 01:36:06;;;;;;;1.48;0.30;;;10.50;74.30;;;;;;5033617;28;20030;-64
2021/05/07 01:38:36;;;;;;;1.67;0.52;;;10.50;74.40;;;;;;5037665;28;20029;-64
2021/05/07 01:41:05;;;;;;;0.60;0.40;;;10.50;74.40;;;;;;5032322;28;20045;-64
2021/05/07 01:43:33;;;;;;;2.17;0.30;;;10.40;74.40;;;;;;5031259;28;20503;-64
2021/05/07 01:46:03;;;;;;;1.25;0.30;;;10.40;74.40;;;;;;5034888;28;20034;-64
2021/05/07 01:48:28;;;;;;;0.75;0.40;;;10.40;74.50;;;;;;5036113;28;20034;-64
2021/05/07 01:50:56;;;;;;;1.90;0.57;;;10.40;74.60;;;;;;5031746;28;20406;-64
2021/05/07 01:53:24;;;;;;;0.63;0.20;;;10.30;74.40;;;;;;5035974;28;20037;-64
2021/05/07 01:55:54;;;;;;;0.52;0.20;;;10.30;74.50;;;;;;5043059;28;20041;-65
2021/05/07 01:58:22;;;;;;;0.75;0.30;;;10.30;74.50;;;;;;5031420;28;20029;-68
2021/05/07 02:00:55;;;;;;;1.10;0.30;;;10.20;74.50;;;;;;5035374;28;20029;-65
2021/05/07 02:03:23;;;;;;;1.67;0.38;;;10.20;74.60;;;;;;5033346;28;20033;-65
2021/05/07 02:05:51;;;;;;;0.57;0.35;;;10.20;74.60;;;;;;5036036;28;20036;-65
2021/05/07 02:08:20;;;;;;;1.42;0.20;;;10.20;74.60;;;;;;5035467;28;20055;-65
2021/05/07 02:10:48;;;;;;;1.17;0.38;;;10.20;74.60;;;;;;5030076;28;20111;-66
2021/05/07 02:13:18;;;;;;;0.60;0.30;;;10.20;74.50;;;;;;5030393;28;20087;-64
2021/05/07 02:15:44;;;;;;;0.60;0.20;;;10.20;74.50;;;;;;5033743;28;20574;-64
2021/05/07 02:18:12;;;;;;;1.55;0.30;;;10.20;75.30;;;;;;5031700;28;20052;-66
2021/05/07 02:20:41;;;;;;;0.63;0.20;;;10.20;74.40;;;;;;5036609;28;20045;-65
2021/05/07 02:23:08;;;;;;;1.30;0.20;;;10.10;74.50;;;;;;5033383;28;20033;-64
2021/05/07 02:25:38;;;;;;;1.25;0.30;;;10.20;74.60;;;;;;5034339;28;20095;-65
2021/05/07 02:28:09;;;;;;;1.73;0.35;;;10.10;74.70;;;;;;5035270;28;20493;-65
2021/05/07 02:30:39;;;;;;;1.45;0.30;;;10.10;74.70;;;;;;5030225;28;20112;-65
2021/05/07 02:33:07;;;;;;;0.85;0.28;;;10.10;74.80;;;;;;5032351;28;20141;-64
2021/05/07 02:35:36;;;;;;;0.55;0.30;;;10.10;74.80;;;;;;5035489;28;20112;-65
2021/05/07 02:38:06;;;;;;;0.85;0.30;;;10.10;75.10;;;;;;5036352;28;20120;-64
2021/05/07 02:40:38;;;;;;;1.33;0.40;;;10.00;75.20;;;;;;5026833;28;20021;-64
2021/05/07 02:43:11;;;;;;;1.63;0.30;;;10.00;75.50;;;;;;5032938;28;20026;-64
2021/05/07 02:45:39;;;;;;;0.50;0.20;;;10.00;75.90;;;;;;5031748;28;20048;-64
2021/05/07 02:48:05;;;;;;;1.13;0.40;;;10.00;76.00;;;;;;5034879;28;20057;-65
2021/05/07 02:50:37;;;;;;;1.38;0.22;;;10.00;76.20;;;;;;5031908;28;20397;-65
2021/05/07 02:53:06;;;;;;;0.98;0.40;;;10.00;77.30;;;;;;5035227;28;20045;-64
2021/05/07 02:55:38;;;;;;;0.93;0.30;;;9.90;76.80;;;;;;5041781;28;20033;-66
2021/05/07 02:58:08;;;;;;;1.25;0.25;;;9.90;77.10;;;;;;5041554;28;20041;-64
2021/05/07 03:00:38;;;;;;;0.75;0.30;;;9.90;77.90;;;;;;5038650;28;20045;-64
2021/05/07 03:03:09;;;;;;;0.85;0.20;;;9.80;77.10;;;;;;5032577;28;20527;-65
2021/05/07 03:05:39;;;;;;;3.58;0.40;;;9.80;77.10;;;;;;5038022;28;20036;-64
2021/05/07 03:08:08;;;;;;;0.95;0.25;;;9.70;77.20;;;;;;5039931;28;20041;-64
2021/05/07 03:10:35;;;;;;;2.05;0.30;;;9.70;77.30;;;;;;5035315;28;20033;-65
2021/05/07 03:13:01;;;;;;;1.35;0.35;;;9.70;77.60;;;;;;5039884;28;20118;-63
2021/05/07 03:15:31;;;;;;;1.05;0.40;;;9.60;77.70;;;;;;5042122;28;20435;-64
2021/05/07 03:18:02;;;;;;;1.40;0.32;;;9.60;78.10;;;;;;5038284;28;20116;-64
2021/05/07 03:20:32;;;;;;;0.65;0.30;;;9.60;78.00;;;;;;5038257;28;20061;-64
2021/05/07 03:23:02;;;;;;;1.77;0.52;;;9.60;78.20;;;;;;5041274;28;20037;-64
2021/05/07 03:25:30;;;;;;;0.50;0.20;;;9.60;78.50;;;;;;5042735;28;20030;-65
2021/05/07 03:28:00;;;;;;;1.42;0.47;;;9.60;78.40;;;;;;5036704;28;20041;-64
2021/05/07 03:30:33;;;;;;;0.22;0.20;;;9.60;78.70;;;;;;5040709;28;20408;-65
2021/05/07 03:33:01;;;;;;;8.43;4.05;;;9.60;78.70;;;;;;5034748;28;20112;-64
2021/05/07 03:35:29;;;;;;;20.30;11.82;;;9.60;78.50;;;;;;5037368;28;20029;-64
2021/05/07 03:38:00;;;;;;;13.05;7.95;;;9.60;78.50;;;;;;5032096;28;20044;-65
2021/05/07 03:40:31;;;;;;;3.58;1.73;;;9.70;78.60;;;;;;5034245;28;20029;-65
2021/05/07 03:43:01;;;;;;;1.33;1.08;;;9.70;78.60;;;;;;5034558;28;20086;-63
2021/05/07 03:45:29;;;;;;;1.00;0.50;;;9.70;78.30;;;;;;5035053;28;20060;-66
2021/05/07 03:47:57;;;;;;;2.17;1.10;;;9.70;78.40;;;;;;5033145;28;20038;-65
2021/05/07 03:50:25;;;;;;;1.90;0.45;;;9.80;78.30;;;;;;5031373;28;20146;-65
2021/05/07 03:52:56;;;;;;;0.98;0.50;;;9.80;78.20;;;;;;5035933;28;20032;-59
2021/05/07 03:55:24;;;;;;;2.58;0.50;;;9.80;78.40;;;;;;5040167;28;20034;-64
2021/05/07 03:57:54;;;;;;;1.63;0.57;;;9.80;78.30;;;;;;5038186;28;20030;-65
2021/05/07 04:00:25;;;;;;;1.20;0.20;;;9.80;78.20;;;;;;5031337;28;20030;-63
2021/05/07 04:02:52;;;;;;;1.45;0.57;;;9.80;77.90;;;;;;5037106;28;20040;-65
2021/05/07 04:05:25;;;;;;;0.75;0.40;;;9.80;77.90;;;;;;5032318;28;20045;-64
2021/05/07 04:10:46;;;;;;;0.93;0.40;;;9.80;77.80;;;;;;5034845;28;20141;-65
2021/05/07 04:15:40;;;;;;;1.15;0.28;;;9.80;77.80;;;;;;5033876;28;20136;-64
2021/05/07 04:18:08;;;;;;;2.47;0.30;;;9.80;78.00;;;;;;5033182;28;20124;-65
2021/05/07 04:20:36;;;;;;;0.77;0.30;;;9.80;77.80;;;;;;5032006;28;20038;-65
2021/05/07 04:23:02;;;;;;;1.10;0.30;;;9.70;77.90;;;;;;5032598;28;20061;-64
2021/05/07 04:25:30;;;;;;;0.80;0.30;;;9.70;77.90;;;;;;5030850;28;20493;-63
2021/05/07 04:28:02;;;;;;;1.33;0.60;;;9.70;78.20;;;;;;5035427;28;20142;-65
2021/05/07 04:30:28;;;;;;;1.35;1.25;;;9.70;78.10;;;;;;5038199;28;20025;-64
2021/05/07 04:32:56;;;;;;;0.73;0.47;;;9.70;78.00;;;;;;5035966;28;20048;-65
2021/05/07 04:35:23;;;;;;;2.03;1.00;;;9.70;78.10;;;;;;5040619;28;20108;-66
2021/05/07 04:37:54;;;;;;;1.70;1.60;;;9.70;78.20;;;;;;5040615;28;20428;-64
2021/05/07 04:40:22;;;;;;;1.45;1.30;;;9.70;78.20;;;;;;5036392;28;20033;-65
2021/05/07 04:42:52;;;;;;;2.17;1.70;;;9.80;78.20;;;;;;5033899;28;20135;-64
2021/05/07 04:45:20;;;;;;;6.35;2.60;;;9.80;78.10;;;;;;5039181;28;20033;-63
2021/05/07 04:47:48;;;;;;;1.50;0.82;;;9.80;78.30;;;;;;5038591;28;20026;-65
2021/05/07 04:50:16;;;;;;;1.27;0.80;;;9.80;78.40;;;;;;5037310;28;20044;-65
2021/05/07 04:52:46;;;;;;;1.77;0.82;;;9.80;78.30;;;;;;5035410;28;20041;-66
2021/05/07 04:55:16;;;;;;;1.33;0.52;;;9.80;78.50;;;;;;5037986;28;20084;-64
2021/05/07 04:57:49;;;;;;;2.50;0.50;;;9.80;78.60;;;;;;5040015;28;20037;-64
2021/05/07 05:00:22;;;;;;;1.98;0.73;;;9.80;78.60;;;;;;5037971;28;20116;-64
2021/05/07 05:02:50;;;;;;;1.02;0.50;;;9.80;78.60;;;;;;5038944;28;20449;-65
2021/05/07 05:05:18;;;;;;;1.70;0.73;;;9.90;78.70;;;;;;5039282;28;20042;-65
2021/05/07 05:07:50;;;;;;;1.92;0.50;;;9.90;78.70;;;;;;5047212;28;20112;-65
2021/05/07 05:10:21;;;;;;;1.52;0.47;;;9.90;78.60;;;;;;5037250;28;20653;-64
2021/05/07 05:12:49;;;;;;;0.93;0.40;;;9.90;78.50;;;;;;5032638;28;20033;-66
2021/05/07 05:15:19;;;;;;;0.90;0.30;;;9.90;78.40;;;;;;5039685;28;20040;-65
2021/05/07 05:17:50;;;;;;;1.25;0.40;;;10.00;78.40;;;;;;5038782;28;20021;-65
2021/05/07 05:20:18;;;;;;;0.30;0.30;;;9.90;78.40;;;;;;5037440;28;20033;-65
2021/05/07 05:22:46;;;;;;;0.75;0.40;;;10.00;78.10;;;;;;5036804;28;20033;-65
2021/05/07 05:25:17;;;;;;;1.83;0.30;;;10.00;78.00;;;;;;5037849;28;20340;-65
2021/05/07 05:27:47;;;;;;;1.13;0.45;;;10.00;78.00;;;;;;5035961;28;20041;-66
2021/05/07 05:30:21;;;;;;;2.00;0.40;;;10.00;78.20;;;;;;5038449;28;20033;-65
2021/05/07 05:32:51;;;;;;;0.88;0.57;;;9.90;78.20;;;;;;5037419;28;20041;-65
2021/05/07 05:35:20;;;;;;;0.80;0.30;;;9.90;78.20;;;;;;5037702;28;20551;-65
2021/05/07 05:37:52;;;;;;;0.40;0.40;;;9.90;78.30;;;;;;5037099;28;20033;-65
2021/05/07 05:40:20;;;;;;;1.55;1.23;;;9.90;78.40;;;;;;5038489;28;20025;-65
2021/05/07 05:42:46;;;;;;;1.50;0.57;;;9.90;78.20;;;;;;5034345;28;20037;-65
2021/05/07 05:45:12;;;;;;;1.73;0.70;;;9.90;78.40;;;;;;5038375;28;20060;-66
2021/05/07 05:47:40;;;;;;;0.77;0.65;;;9.90;78.60;;;;;;5035817;28;20036;-66
2021/05/07 05:50:11;;;;;;;1.35;1.15;;;9.90;78.60;;;;;;5033080;28;20044;-67
2021/05/07 05:52:39;;;;;;;0.90;0.70;;;9.90;78.70;;;;;;5035208;28;20377;-65
2021/05/07 05:55:07;;;;;;;0.63;0.52;;;9.90;78.70;;;;;;5038071;28;20128;-65
2021/05/07 05:57:35;;;;;;;1.00;0.70;;;10.00;78.70;;;;;;5038505;28;20108;-66
2021/05/07 06:00:03;;;;;;;0.77;0.38;;;10.00;78.70;;;;;;5038521;28;20036;-65
2021/05/07 06:02:31;;;;;;;1.13;0.50;;;10.00;78.90;;;;;;5037263;28;20033;-65
2021/05/07 06:04:59;;;;;;;1.27;0.28;;;10.00;78.80;;;;;;5035135;28;20040;-66
2021/05/07 06:07:29;;;;;;;0.70;0.40;;;10.00;78.70;;;;;;5037758;28;20079;-65
2021/05/07 06:10:02;;;;;;;2.28;0.57;;;10.00;78.70;;;;;;5038483;28;20520;-65
2021/05/07 06:12:32;;;;;;;0.60;0.52;;;10.00;79.10;;;;;;5030295;28;20033;-65
2021/05/07 06:15:05;;;;;;;1.60;0.50;;;10.00;79.30;;;;;;5036496;28;20037;-66
2021/05/07 06:17:31;;;;;;;0.68;0.40;;;10.00;79.40;;;;;;5035160;28;20069;-65
2021/05/07 06:19:59;;;;;;;0.60;0.20;;;9.90;79.10;;;;;;5036664;28;20063;-65
2021/05/07 06:22:29;;;;;;;0.35;0.20;;;9.80;78.20;;;;;;5042192;28;20033;-65
2021/05/07 06:24:57;;;;;;;0.20;0.10;;;9.80;77.00;;;;;;5035910;28;20985;-66
2021/05/07 06:27:25;;;;;;;0.63;0.10;;;9.60;76.60;;;;;;5038116;28;20037;-66
2021/05/07 06:29:58;;;;;;;0.15;0.10;;;9.50;76.90;;;;;;5038010;28;20475;-65
2021/05/07 06:32:25;;;;;;;0.30;0.22;;;9.30;77.20;;;;;;5034180;28;20064;-65
2021/05/07 06:34:53;;;;;;;0.63;0.28;;;9.20;77.40;;;;;;5035739;28;20022;-65
2021/05/07 06:37:21;;;;;;;0.50;0.50;;;9.10;77.60;;;;;;5035284;28;20408;-66
2021/05/07 06:39:54;;;;;;;0.70;0.70;;;9.00;76.80;;;;;;5038631;28;20071;-66
2021/05/07 06:42:24;;;;;;;0.70;0.40;;;8.80;76.50;;;;;;5035858;28;20029;-66
2021/05/07 06:44:54;;;;;;;0.25;0.20;;;8.70;76.80;;;;;;5034049;28;20503;-65
2021/05/07 06:47:24;;;;;;;0.10;0.10;;;8.60;77.00;;;;;;5037457;28;20052;-65
2021/05/07 06:49:50;;;;;;;0.40;0.10;;;8.50;76.90;;;;;;5035084;28;20284;-64
2021/05/07 06:52:20;;;;;;;0.20;0.20;;;8.40;76.90;;;;;;5036914;28;20044;-65
2021/05/07 06:54:49;;;;;;;0.15;0.10;;;8.30;77.00;;;;;;5037281;28;20029;-64
2021/05/07 06:57:19;;;;;;;0.30;0.20;;;8.20;77.70;;;;;;5034156;28;20036;-64
2021/05/07 06:59:49;;;;;;;0.30;0.30;;;8.10;78.00;;;;;;5038158;28;20120;-65
2021/05/07 07:02:20;;;;;;;0.10;0.10;;;8.00;78.80;;;;;;5025098;28;20041;-65
2021/05/07 07:04:51;;;;;;;0.05;0.00;;;7.90;78.00;;;;;;5036229;28;20034;-66
2021/05/07 07:07:18;;;;;;;0.00;0.00;;;7.90;78.20;;;;;;5036130;28;20057;-65
2021/05/07 07:09:44;;;;;;;0.05;0.00;;;7.80;78.40;;;;;;5045179;28;20029;-65
2021/05/07 07:12:10;;;;;;;0.13;0.10;;;7.80;78.60;;;;;;5032857;28;20308;-66
2021/05/07 07:14:39;;;;;;;0.30;0.28;;;7.80;78.40;;;;;;5032608;28;20029;-66
2021/05/07 07:17:07;;;;;;;0.13;0.10;;;7.80;78.30;;;;;;5036489;28;20029;-66
2021/05/07 07:19:38;;;;;;;0.20;0.20;;;7.70;78.40;;;;;;5036979;28;20107;-65
2021/05/07 07:22:09;;;;;;;0.00;0.00;;;7.70;78.50;;;;;;5035413;28;20125;-65
2021/05/07 07:24:39;;;;;;;0.00;0.00;;;7.60;78.60;;;;;;5035117;28;20512;-65
2021/05/07 07:27:08;;;;;;;0.00;0.00;;;7.60;78.20;;;;;;5037767;28;20716;-65
2021/05/07 07:29:39;;;;;;;0.00;0.00;;;7.50;78.10;;;;;;5036752;28;20032;-64
2021/05/07 07:32:07;;;;;;;0.00;0.00;;;7.50;78.50;;;;;;5036447;28;20420;-66
2021/05/07 07:34:35;;;;;;;0.05;0.00;;;7.50;78.30;;;;;;5035816;28;20029;-65
2021/05/07 07:37:01;;;;;;;0.00;0.00;;;7.50;78.40;;;;;;5037557;28;20029;-65
2021/05/07 07:39:31;;;;;;;0.00;0.00;;;7.40;78.90;;;;;;5035546;28;20029;-66
2021/05/07 07:41:59;;;;;;;0.10;0.10;;;7.40;79.30;;;;;;5041029;28;20425;-67
2021/05/07 07:44:29;;;;;;;0.10;0.10;;;7.40;79.80;;;;;;5036900;28;20037;-65
2021/05/07 07:47:02;;;;;;;0.10;0.10;;;7.40;80.30;;;;;;5042283;28;20033;-66
2021/05/07 07:49:27;;;;;;;1.23;0.10;;;7.50;80.00;;;;;;5041008;28;20030;-65
2021/05/07 07:51:58;;;;;;;0.10;0.00;;;7.50;79.60;;;;;;5040242;28;20040;-64
2021/05/07 07:54:26;;;;;;;1.92;0.00;;;7.50;79.00;;;;;;5037650;28;20065;-64
2021/05/07 07:56:54;;;;;;;0.10;0.10;;;7.50;78.90;;;;;;5040237;28;20032;-64
2021/05/07 07:59:22;;;;;;;0.10;0.10;;;7.50;79.60;;;;;;5040544;28;20408;-65
2021/05/07 08:01:50;;;;;;;0.15;0.10;;;7.60;80.40;;;;;;5039407;28;20456;-65
2021/05/07 08:04:18;;;;;;;0.40;0.40;;;7.60;80.00;;;;;;5040445;28;20542;-65
2021/05/07 08:06:45;;;;;;;0.35;0.20;;;7.70;80.50;;;;;;5039948;28;20041;-64
2021/05/07 08:09:13;;;;;;;0.13;0.10;;;7.70;80.50;;;;;;5039269;28;20427;-65
2021/05/07 08:11:41;;;;;;;0.35;0.10;;;7.80;80.30;;;;;;5037055;28;20044;-65
2021/05/07 08:14:11;;;;;;;0.10;0.10;;;7.80;79.50;;;;;;5038244;28;20034;-66
2021/05/07 08:16:39;;;;;;;0.20;0.20;;;7.90;79.40;;;;;;5039667;28;20033;-64
2021/05/07 08:19:09;;;;;;;0.30;0.20;;;7.90;79.60;;;;;;5041606;28;20041;-65
2021/05/07 08:21:35;;;;;;;0.20;0.20;;;8.00;79.80;;;;;;5039911;28;20086;-65
2021/05/07 08:24:03;;;;;;;0.10;0.10;;;8.00;79.40;;;;;;5039920;28;20029;-64
2021/05/07 08:26:29;;;;;;;0.10;0.10;;;8.20;79.40;;;;;;5039202;28;20034;-65
2021/05/07 08:29:01;;;;;;;0.30;0.10;;;8.20;78.70;;;;;;5038602;28;20055;-65
2021/05/07 08:31:29;;;;;;;0.15;0.10;;;8.20;78.80;;;;;;5039248;28;20025;-65
2021/05/07 08:34:00;;;;;;;0.20;0.20;;;8.20;78.20;;;;;;5038911;28;20037;-65
2021/05/07 08:36:32;;;;;;;0.35;0.30;;;8.20;78.40;;;;;;5038992;28;20528;-65
2021/05/07 08:39:02;;;;;;;0.13;0.13;;;8.30;78.60;;;;;;5039880;28;20029;-64
2021/05/07 08:41:33;;;;;;;0.40;0.38;;;8.30;78.00;;;;;;5035205;28;20382;-66
2021/05/07 08:44:03;;;;;;;0.40;0.38;;;8.30;77.90;;;;;;5035093;28;20519;-65
2021/05/07 08:46:35;;;;;;;0.20;0.20;;;8.30;78.10;;;;;;5037319;28;20041;-65
2021/05/07 08:49:06;;;;;;;0.20;0.20;;;8.30;77.90;;;;;;5035943;28;20033;-64
2021/05/07 08:51:31;;;;;;;0.40;0.30;;;8.40;78.50;;;;;;5038082;28;20175;-65
2021/05/07 08:54:04;;;;;;;0.10;0.10;;;8.40;78.80;;;;;;5046135;28;20115;-65
2021/05/07 08:56:32;;;;;;;0.40;0.38;;;8.50;78.70;;;;;;5035279;28;20033;-65
2021/05/07 08:58:58;;;;;;;0.40;0.40;;;8.50;78.10;;;;;;5038675;28;20038;-66
2021/05/07 09:01:38;;;;;;;0.40;0.40;;;8.60;78.20;;;;;;5037090;28;20044;-66
2021/05/07 09:04:18;;;;;;;0.65;0.60;;;8.70;78.10;;;;;;5036063;28;20407;-65
2021/05/07 09:06:53;;;;;;;0.65;0.63;;;8.70;77.50;;;;;;5037057;28;20086;-65
2021/05/07 09:09:31;;;;;;;;;;;8.70;77.20;;;;;;5039150;28;20037;-66
2021/05/07 09:12:03;;;;;;;0.93;0.90;;;8.80;76.20;;;;;;5031707;28;19917;-66
2021/05/07 09:14:31;;;;;;;1.20;1.10;;;8.80;76.10;;;;;;5038110;28;20033;-66
2021/05/07 09:17:05;;;;;;;1.30;1.20;;;8.80;75.80;;;;;;5037307;28;20124;-66
2021/05/07 09:19:34;;;;;;;1.20;1.10;;;8.90;76.00;;;;;;5039768;28;20029;-66
2021/05/07 09:22:02;;;;;;;1.50;1.40;;;8.90;76.50;;;;;;5039449;28;20060;-65
2021/05/07 09:24:40;;;;;;;2.50;2.00;;;8.90;76.50;;;;;;5040280;28;20396;-65
2021/05/07 09:27:08;;;;;;;2.97;2.78;;;9.00;75.30;;;;;;5043917;28;20037;-65
2021/05/07 09:29:42;;;;;;;3.40;3.10;;;9.00;75.40;;;;;;5039619;28;20033;-65
2021/05/07 09:32:08;;;;;;;3.40;3.10;;;9.10;75.40;;;;;;5037973;28;20041;-65
2021/05/07 09:34:37;;;;;;;3.45;3.15;;;9.10;75.60;;;;;;5037696;28;20143;-65
2021/05/07 09:37:19;;;;;;;3.38;3.08;;;9.10;74.70;;;;;;5037753;28;20034;-65
2021/05/07 09:39:44;;;;;;;3.60;3.30;;;9.20;73.30;;;;;;5038704;28;20025;-65
2021/05/07 09:42:24;;;;;;;4.22;3.80;;;9.10;73.80;;;;;;5032392;28;20511;-65
2021/05/07 09:44:54;;;;;;;4.35;3.88;;;9.20;74.20;;;;;;5034053;28;20313;-65
2021/05/07 09:47:22;;;;;;;6.20;5.20;;;9.20;74.70;;;;;;5036622;28;20038;-66
2021/05/07 09:49:50;;;;;;;5.03;4.00;;;9.20;75.10;;;;;;5038279;28;20025;-65
2021/05/07 09:52:30;;;;;;;4.55;4.00;;;9.20;75.70;;;;;;5037133;28;20038;-65
2021/05/07 09:54:56;;;;;;;4.88;3.95;;;9.30;75.10;;;;;;5034466;28;20484;-66
2021/05/07 09:57:26;;;;;;;4.63;4.20;;;9.40;74.30;;;;;;5036534;28;20029;-65
2021/05/07 10:00:02;;;;;;;5.93;4.50;;;9.40;73.60;;;;;;5051275;28;20037;-64
2021/05/07 10:02:29;;;;;;;5.35;4.30;;;9.40;73.70;;;;;;5035737;28;20037;-65
2021/05/07 10:05:02;;;;;;;4.50;4.10;;;9.50;73.90;;;;;;5037144;28;20036;-66
2021/05/07 10:07:32;;;;;;;4.45;3.35;;;9.50;74.00;;;;;;5036499;28;20451;-65
2021/05/07 10:10:08;;;;;;;4.22;3.38;;;9.60;74.00;;;;;;5036269;28;20037;-65
2021/05/07 10:12:38;;;;;;;3.83;3.22;;;9.70;72.50;;;;;;5030050;28;20537;-65
2021/05/07 10:15:07;;;;;;;3.17;2.85;;;9.70;72.30;;;;;;5034618;28;20036;-66
2021/05/07 10:17:32;;;;;;;3.40;3.00;;;9.80;72.30;;;;;;5035624;28;20041;-66
2021/05/07 10:20:01;;;;;;;2.60;2.40;;;9.80;72.00;;;;;;5039090;28;20038;-65
2021/05/07 10:22:43;;;;;;;2.28;2.08;;;9.70;72.20;;;;;;5035519;28;20029;-64
2021/05/07 10:25:16;;;;;;;1.52;1.42;;;9.70;71.60;;;;;;5037122;28;20041;-65
2021/05/07 10:27:51;;;;;;;1.42;1.33;;;9.60;72.10;;;;;;5035974;28;20151;-65
2021/05/07 10:30:36;;;;;;;1.15;1.00;;;9.50;72.10;;;;;;5034830;28;20082;-65
2021/05/07 10:33:22;;;;;;;1.65;1.10;;;9.50;72.20;;;;;;5036593;28;20099;-65
2021/05/07 10:35:55;;;;;;;1.40;1.15;;;9.40;72.80;;;;;;5037126;28;20029;-65
2021/05/07 10:38:25;;;;;;;1.42;1.33;;;9.30;73.70;;;;;;5035262;28;20041;-65
2021/05/07 10:41:08;;;;;;;2.65;1.60;;;9.20;74.30;;;;;;5033725;28;20095;-65
2021/05/07 10:43:45;;;;;;;2.15;1.95;;;9.10;75.20;;;;;;5033861;28;20523;-65
2021/05/07 10:46:43;;;;;;;1.90;1.70;;;9.10;75.60;;;;;;5034445;28;20475;-65
2021/05/07 10:49:14;;;;;;;1.60;1.50;;;9.20;76.70;;;;;;5022431;28;20413;-65
2021/05/07 10:51:41;;;;;;;1.70;1.60;;;9.20;75.60;;;;;;5038356;28;20413;-65
2021/05/07 10:54:14;;;;;;;1.50;1.40;;;9.30;75.80;;;;;;5038488;28;20049;-65
2021/05/07 10:56:43;;;;;;;1.90;1.80;;;9.30;75.90;;;;;;5035725;28;20519;-65
2021/05/07 10:59:17;;;;;;;1.80;1.70;;;9.40;75.40;;;;;;5038132;28;20635;-66
2021/05/07 11:02:02;;;;;;;2.00;1.70;;;9.50;74.90;;;;;;5036410;28;20037;-65
2021/05/07 11:04:48;;;;;;;1.73;1.63;;;9.50;75.50;;;;;;5045973;28;20041;-64
2021/05/07 11:07:30;;;;;;;2.15;1.80;;;9.70;76.00;;;;;;5039538;28;20033;-66
2021/05/07 11:10:17;;;;;;;1.63;1.52;;;9.80;77.00;;;;;;5037150;28;20068;-65
2021/05/07 11:12:43;;;;;;;2.10;1.90;;;10.00;76.00;;;;;;5034174;28;20037;-66
2021/05/07 11:15:19;;;;;;;2.28;2.08;;;10.10;74.60;;;;;;5046850;28;20416;-66
2021/05/07 11:17:56;;;;;;;2.53;2.33;;;10.20;73.20;;;;;;5043407;28;20036;-66
2021/05/07 11:20:38;;;;;;;2.55;2.20;;;10.40;72.50;;;;;;5042135;28;20042;-66
2021/05/07 11:23:12;;;;;;;2.10;2.00;;;10.50;70.90;;;;;;5048907;28;20037;-66
2021/05/07 11:25:41;;;;;;;2.60;2.40;;;10.60;68.30;;;;;;5041093;28;20037;-66
2021/05/07 11:28:15;;;;;;;1.90;1.80;;;10.80;68.90;;;;;;5043379;28;20067;-66
2021/05/07 11:30:47;;;;;;;2.95;1.60;;;10.90;65.00;;;;;;5041533;28;20045;-66
2021/05/07 11:33:20;;;;;;;2.60;2.08;;;10.90;63.70;;;;;;5041061;28;20038;-65
2021/05/07 11:36:01;;;;;;;2.20;1.70;;;11.00;63.00;;;;;;5041809;28;20036;-66
2021/05/07 11:38:30;;;;;;;2.97;2.03;;;11.00;60.60;;;;;;5041494;28;20040;-66
2021/05/07 11:41:00;;;;;;;2.10;1.75;;;11.10;60.50;;;;;;5039295;28;20059;-66
2021/05/07 11:43:29;;;;;;;1.70;1.60;;;11.10;58.90;;;;;;5038697;28;20053;-66
2021/05/07 11:46:06;;;;;;;2.03;1.88;;;11.20;59.60;;;;;;5037947;28;21756;-66
2021/05/07 11:48:36;;;;;;;3.30;2.15;;;11.20;58.80;;;;;;5046270;28;20128;-65
2021/05/07 11:51:09;;;;;;;2.53;1.73;;;11.20;59.00;;;;;;5038655;28;21560;-66
2021/05/07 11:53:38;;;;;;;2.35;2.10;;;11.20;58.80;;;;;;5041808;28;20497;-66
2021/05/07 11:56:20;;;;;;;2.22;1.83;;;11.20;59.70;;;;;;5037770;28;20033;-66
2021/05/07 11:58:49;;;;;;;1.90;1.73;;;11.20;59.00;;;;;;5041048;28;20034;-64
2021/05/07 12:01:17;;;;;;;2.63;1.70;;;11.20;59.50;;;;;;5038810;28;20435;-66
2021/05/07 12:03:46;;;;;;;1.83;1.73;;;11.20;60.10;;;;;;5038957;28;20523;-66
2021/05/07 12:06:24;;;;;;;2.20;2.00;;;11.30;58.00;;;;;;5040014;28;20427;-65
2021/05/07 12:08:54;;;;;;;1.98;1.80;;;11.30;56.80;;;;;;5039759;28;20264;-67
2021/05/07 12:11:25;;;;;;;2.22;2.03;;;11.40;56.20;;;;;;5038824;28;20116;-66
2021/05/07 12:13:53;;;;;;;2.63;2.03;;;11.40;56.40;;;;;;5037376;28;20100;-66
2021/05/07 12:16:29;;;;;;;2.08;1.98;;;11.40;56.70;;;;;;5038375;28;20025;-66
2021/05/07 12:19:00;;;;;;;2.00;1.88;;;11.50;56.60;;;;;;5038823;28;20033;-66
2021/05/07 12:21:38;;;;;;;2.75;2.13;;;11.40;57.10;;;;;;5040485;28;20033;-65
2021/05/07 12:24:07;;;;;;;1.85;1.70;;;11.40;55.00;;;;;;5039142;28;20038;-67
2021/05/07 12:26:52;;;;;;;2.88;1.90;;;11.40;55.10;;;;;;5039775;28;20052;-66
2021/05/07 12:29:34;;;;;;;3.22;2.30;;;11.50;53.30;;;;;;5037139;28;20508;-67
2021/05/07 12:32:03;;;;;;;2.78;2.30;;;11.60;55.70;;;;;;5037277;28;20041;-67
2021/05/07 12:34:31;;;;;;;2.85;1.98;;;11.70;54.50;;;;;;5039986;28;20025;-66
2021/05/07 12:37:00;;;;;;;1.88;1.70;;;11.80;55.60;;;;;;5037162;28;20404;-67
2021/05/07 12:39:27;;;;;;;1.70;1.50;;;11.90;53.60;;;;;;5040618;28;20021;-66
2021/05/07 12:41:57;;;;;;;1.50;1.40;;;11.90;51.10;;;;;;5037286;28;20026;-67
2021/05/07 12:44:28;;;;;;;1.65;1.55;;;12.00;50.00;;;;;;5037240;28;20580;-66
2021/05/07 12:46:55;;;;;;;2.55;1.80;;;11.90;50.30;;;;;;5037089;28;20148;-67
2021/05/07 12:49:21;;;;;;;2.42;2.10;;;11.90;51.60;;;;;;5038925;28;20413;-67
2021/05/07 12:51:49;;;;;;;3.13;1.92;;;11.90;52.10;;;;;;5037430;28;20044;-67
2021/05/07 12:54:17;;;;;;;2.40;1.90;;;11.90;52.00;;;;;;5036411;28;20030;-67
2021/05/07 12:56:48;;;;;;;2.95;1.85;;;11.90;51.70;;;;;;5036142;28;20037;-66
2021/05/07 12:59:16;;;;;;;2.53;1.60;;;11.90;51.60;;;;;;5038718;28;20033;-66
2021/05/07 13:01:43;;;;;;;3.35;1.63;;;11.90;50.50;;;;;;5036469;28;20029;-64
2021/05/07 13:04:14;;;;;;;2.30;2.10;;;11.90;51.10;;;;;;5038300;28;20041;-67
2021/05/07 13:06:44;;;;;;;2.20;1.70;;;11.90;50.80;;;;;;5035035;28;20033;-67
2021/05/07 13:09:12;;;;;;;2.88;1.63;;;11.90;51.80;;;;;;5037921;28;20030;-66
2021/05/07 13:11:37;;;;;;;1.85;1.60;;;11.90;51.30;;;;;;5033866;28;20094;-66
2021/05/07 13:14:09;;;;;;;2.05;1.65;;;11.80;50.70;;;;;;5035650;28;20440;-66